Terminal Aerodrome Forecast
Issued by NWS

Home | Current Version | Previous Version | Text Only | Print | Product List | Glossary On
Versions: 1 2 3 4 5 6 7 8 9 10 11 12 13 14 15 16
000
FTUS42 KFFC 282336
TAFRYY
TAF
KRYY 282336Z 2900/2924 32007KT P6SM FEW045
     FM290200 35004KT P6SM SCT120
     FM291500 31006KT P6SM SCT050 PROB30 2920/2924 6SM -TSRA
      BKN050CB
      AMD NOT SKED 2904/2912=

USA.gov is the U.S. government's official web portal to all federal, state and local government web resources and services.